createdAt,value
2023-03-11T11:55:48.534Z,96709.09
2023-03-11T11:58:57.663Z,96715.59
2023-03-11T12:02:14.652Z,96728.38
2023-03-11T12:05:28.507Z,96741.81
2023-03-11T12:08:40.284Z,96758.31
2023-03-11T12:11:54.551Z,96753.19
2023-03-11T12:15:10.476Z,96759.16
2023-03-11T12:18:21.408Z,96770.94
2023-03-11T12:21:43.194Z,96778.47
2023-03-11T12:25:03.504Z,96790.41
2023-03-11T12:28:22.020Z,96778.88
2023-03-11T12:31:31.708Z,96783.47
2023-03-11T12:34:37.608Z,96799.59
2023-03-11T12:37:45.754Z,96810.44
2023-03-11T12:41:01.791Z,96816.59
2023-03-11T12:44:23.839Z,96822.19
2023-03-11T12:47:29.229Z,96838.59
2023-03-11T12:50:41.884Z,96855.09
2023-03-11T12:53:48.726Z,96866.91
2023-03-11T12:56:57.366Z,96861.34
2023-03-11T13:00:24.184Z,96885.66
2023-03-11T13:03:53.134Z,96911.06
2023-03-11T13:07:34.858Z,96916.63
2023-03-11T13:10:41.620Z,96929.13
2023-03-11T13:13:45.641Z,96932.47
2023-03-11T13:16:51.692Z,96948.56
2023-03-11T13:19:57.471Z,96949.03
2023-03-11T13:23:21.881Z,96956.38
2023-03-11T13:26:45.630Z,96958.31
2023-03-11T13:30:02.766Z,96984.69
2023-03-11T13:33:26.455Z,96986.09
2023-03-11T13:36:56.764Z,96988.72
2023-03-11T13:40:14.627Z,97001.50
2023-03-11T13:43:21.811Z,97005.78
2023-03-11T13:46:32.036Z,97025.50
2023-03-11T13:49:42.622Z,97024.94
2023-03-11T13:52:50.598Z,97036.59
2023-03-11T13:55:54.979Z,97035.91
2023-03-11T13:59:17.740Z,97050.38
2023-03-11T14:02:28.693Z,97067.16
2023-03-11T14:22:03.352Z,97086.59
2023-03-11T14:25:38.612Z,97102.34
2023-03-11T14:33:04.623Z,97114.03
2023-03-11T14:39:54.121Z,97127.09
2023-03-11T14:43:12.618Z,97135.44
2023-03-11T14:46:26.230Z,97147.25
2023-03-11T14:49:33.043Z,97154.31
2023-03-11T14:52:46.871Z,97163.16
2023-03-11T14:55:57.376Z,97164.84
2023-03-11T14:59:13.577Z,97187.88
2023-03-11T15:02:46.282Z,97179.00
2023-03-11T15:06:05.166Z,97179.81
2023-03-11T15:09:18.878Z,97182.88
2023-03-11T15:12:35.801Z,97186.78
2023-03-11T15:19:36.281Z,97209.94
2023-03-11T15:23:13.641Z,97209.94
2023-03-11T15:26:26.468Z,97204.78
2023-03-11T15:29:34.115Z,97208.13
2023-03-11T15:32:43.923Z,97225.06
2023-03-11T15:35:57.500Z,97227.03
2023-03-11T15:39:20.145Z,97233.94
2023-03-11T15:42:32.327Z,97250.03
2023-03-11T15:45:38.911Z,97256.84
2023-03-11T15:53:06.230Z,97273.34
2023-03-11T15:56:25.516Z,97273.59
2023-03-11T15:59:32.654Z,97283.31
2023-03-11T16:02:45.511Z,97289.41
2023-03-11T16:13:39.221Z,97310.25
2023-03-11T16:16:49.038Z,97318.84
2023-03-11T16:19:54.411Z,97335.19
2023-03-11T16:23:01.991Z,97336.59
2023-03-11T16:30:21.982Z,97370.44
2023-03-11T16:33:30.414Z,97366.38
2023-03-11T16:36:35.234Z,97373.69
2023-03-11T16:39:39.429Z,97390.09
2023-03-11T16:42:45.275Z,97385.91
2023-03-11T16:45:53.013Z,97402.31
2023-03-11T16:48:58.022Z,97409.78
2023-03-11T16:52:03.234Z,97414.78
2023-03-11T16:55:09.774Z,97417.00
2023-03-11T16:58:16.189Z,97424.44
2023-03-11T17:01:28.161Z,97424.44
2023-03-11T17:04:33.832Z,97441.34
2023-03-11T17:07:39.831Z,97453.91
2023-03-11T17:10:47.388Z,97463.03
2023-03-11T17:13:54.180Z,97468.03
2023-03-11T17:17:00.521Z,97463.03
2023-03-11T17:20:08.075Z,97470.59
2023-03-11T17:23:12.404Z,97493.22
2023-03-11T17:26:19.068Z,97495.13
2023-03-11T17:29:24.986Z,97503.75
2023-03-11T17:32:32.688Z,97512.63
2023-03-11T17:35:38.048Z,97518.16
2023-03-11T17:38:43.052Z,97516.97
2023-03-11T17:41:48.423Z,97536.72
2023-03-11T17:44:57.697Z,97542.09
2023-03-11T17:48:03.764Z,97535.56
2023-03-11T17:51:15.939Z,97540.00
2023-03-11T17:54:20.436Z,97553.59
2023-03-11T17:57:25.914Z,97564.16
2023-03-11T18:00:30.648Z,97557.13
2023-03-11T18:03:37.212Z,97576.28
2023-03-11T18:06:41.836Z,97573.19
2023-03-11T18:09:47.198Z,97587.06
2023-03-11T18:12:51.790Z,97585.28
2023-03-11T18:16:01.324Z,97586.34
2023-03-11T18:19:07.122Z,97603.75
2023-03-11T18:22:12.352Z,97598.81
2023-03-11T18:25:16.678Z,97597.03
2023-03-11T18:28:21.790Z,97612.47
2023-03-11T18:31:28.810Z,97617.41
2023-03-11T18:34:35.811Z,97617.75
2023-03-11T18:37:40.896Z,97620.03
2023-03-11T18:40:46.841Z,97636.28
2023-03-11T18:43:55.181Z,97633.44
2023-03-11T18:47:01.029Z,97652.34
2023-03-11T18:50:09.873Z,97641.44
2023-03-11T18:53:16.854Z,97651.38
2023-03-11T18:56:23.354Z,97653.56
2023-03-11T18:59:31.317Z,97656.19
2023-03-11T19:02:39.453Z,97654.97
2023-03-11T19:05:54.771Z,97663.81
2023-03-11T19:09:02.306Z,97662.16
2023-03-11T19:12:21.517Z,97678.69
2023-03-11T19:15:40.839Z,97674.13
2023-03-11T19:19:15.406Z,97681.91
2023-03-11T19:22:38.639Z,97678.44
2023-03-11T19:26:03.361Z,97699.16
2023-03-11T19:29:25.441Z,97703.59
2023-03-11T19:32:35.612Z,97709.47
2023-03-11T19:35:44.020Z,97701.91
2023-03-11T19:39:13.418Z,97717.22
2023-03-11T19:42:29.427Z,97718.56
2023-03-11T19:45:51.031Z,97726.09
2023-03-11T19:49:19.535Z,97731.38
2023-03-11T19:52:32.612Z,97740.81
2023-03-11T19:56:28.172Z,97729.44
2023-03-11T19:59:51.497Z,97742.38
2023-03-11T20:03:29.228Z,97743.94
2023-03-11T20:07:11.985Z,97752.44
2023-03-11T20:10:21.899Z,97748.03
2023-03-11T20:13:33.500Z,97748.59
2023-03-11T20:16:56.185Z,97748.84
2023-03-11T20:20:26.725Z,97756.38
2023-03-11T20:23:40.374Z,97759.13
2023-03-11T20:26:51.413Z,97757.22
2023-03-11T20:30:06.421Z,97752.19
2023-03-11T20:33:18.589Z,97761.78
2023-03-11T20:36:40.927Z,97764.41
2023-03-11T20:40:11.091Z,97768.13
2023-03-11T20:48:10.523Z,97784.75
2023-03-11T20:51:56.398Z,97778.88
2023-03-11T20:55:27.892Z,97783.53
2023-03-11T20:58:34.213Z,97788.31
2023-03-11T21:01:45.391Z,97792.38
2023-03-11T21:04:52.003Z,97796.44
2023-03-11T21:07:57.252Z,97805.06
2023-03-11T21:11:02.721Z,97797.88
2023-03-11T21:14:10.063Z,97812.25
2023-03-11T21:17:14.534Z,97807.34
2023-03-11T21:20:26.566Z,97804.59
2023-03-11T21:23:34.745Z,97804.59
2023-03-11T21:26:44.992Z,97814.50
2023-03-11T21:29:49.620Z,97804.81
2023-03-11T21:32:54.475Z,97810.34
2023-03-11T21:36:02.817Z,97815.34
